sensor_id;sensor_type;location;lat;lon;timestamp;pressure;altitude;pressure_sealevel;temperature;humidity
70411;BME280;57832;46.038;11.398;2023-03-19T00:01:28;97093.81;;;3.61;100.00
70411;BME280;57832;46.038;11.398;2023-03-19T00:03:54;97095.81;;;3.73;100.00
70411;BME280;57832;46.038;11.398;2023-03-19T00:06:20;97106.66;;;3.90;100.00
70411;BME280;57832;46.038;11.398;2023-03-19T00:08:47;97113.81;;;3.81;100.00
70411;BME280;57832;46.038;11.398;2023-03-19T00:11:12;97111.88;;;3.96;100.00
70411;BME280;57832;46.038;11.398;2023-03-19T00:13:38;97115.09;;;3.15;100.00
70411;BME280;57832;46.038;11.398;2023-03-19T00:16:05;97116.59;;;3.31;100.00
70411;BME280;57832;46.038;11.398;2023-03-19T00:18:32;97105.00;;;3.68;100.00
70411;BME280;57832;46.038;11.398;2023-03-19T00:20:58;97115.50;;;3.54;100.00
70411;BME280;57832;46.038;11.398;2023-03-19T00:23:23;97119.34;;;3.64;100.00
70411;BME280;57832;46.038;11.398;2023-03-19T00:25:49;97112.94;;;3.60;100.00
70411;BME280;57832;46.038;11.398;2023-03-19T00:28:15;97101.56;;;3.55;100.00
70411;BME280;57832;46.038;11.398;2023-03-19T00:30:41;97100.81;;;3.26;100.00
70411;BME280;57832;46.038;11.398;2023-03-19T00:33:08;97110.47;;;3.39;100.00
70411;BME280;57832;46.038;11.398;2023-03-19T00:35:34;97116.00;;;3.35;100.00
70411;BME280;57832;46.038;11.398;2023-03-19T00:37:59;97106.53;;;3.21;100.00
70411;BME280;57832;46.038;11.398;2023-03-19T00:40:26;97108.03;;;3.37;100.00
70411;BME280;57832;46.038;11.398;2023-03-19T00:42:51;97105.00;;;3.68;100.00
70411;BME280;57832;46.038;11.398;2023-03-19T00:45:17;97112.66;;;3.42;100.00
70411;BME280;57832;46.038;11.398;2023-03-19T00:47:42;97107.88;;;3.39;100.00
70411;BME280;57832;46.038;11.398;2023-03-19T00:50:08;97111.41;;;3.31;100.00
70411;BME280;57832;46.038;11.398;2023-03-19T00:52:34;97105.34;;;2.89;100.00
70411;BME280;57832;46.038;11.398;2023-03-19T00:54:59;97118.34;;;2.67;100.00
70411;BME280;57832;46.038;11.398;2023-03-19T00:57:25;97115.63;;;2.75;100.00
70411;BME280;57832;46.038;11.398;2023-03-19T00:59:51;97112.72;;;2.63;100.00
70411;BME280;57832;46.038;11.398;2023-03-19T01:02:16;97098.25;;;2.97;100.00
70411;BME280;57832;46.038;11.398;2023-03-19T01:04:42;97099.56;;;3.15;100.00
70411;BME280;57832;46.038;11.398;2023-03-19T01:07:08;97089.25;;;3.28;100.00
70411;BME280;57832;46.038;11.398;2023-03-19T01:09:33;97089.94;;;3.09;100.00
70411;BME280;57832;46.038;11.398;2023-03-19T01:12:00;97096.63;;;2.96;100.00
70411;BME280;57832;46.038;11.398;2023-03-19T01:14:29;97100.13;;;2.82;100.00
70411;BME280;57832;46.038;11.398;2023-03-19T01:16:55;97109.75;;;2.88;100.00
70411;BME280;57832;46.038;11.398;2023-03-19T01:19:21;97114.00;;;2.74;100.00
70411;BME280;57832;46.038;11.398;2023-03-19T01:21:47;97102.44;;;2.48;100.00
70411;BME280;57832;46.038;11.398;2023-03-19T01:24:14;97111.72;;;2.36;100.00
70411;BME280;57832;46.038;11.398;2023-03-19T01:26:41;97109.28;;;2.34;100.00
70411;BME280;57832;46.038;11.398;2023-03-19T01:29:07;97110.13;;;2.63;100.00
70411;BME280;57832;46.038;11.398;2023-03-19T01:31:33;97103.59;;;2.67;100.00
70411;BME280;57832;46.038;11.398;2023-03-19T01:33:59;97088.09;;;2.74;100.00
70411;BME280;57832;46.038;11.398;2023-03-19T01:36:26;97093.53;;;2.29;100.00
70411;BME280;57832;46.038;11.398;2023-03-19T01:38:52;97096.34;;;2.56;100.00
70411;BME280;57832;46.038;11.398;2023-03-19T01:41:18;97094.22;;;2.66;100.00
70411;BME280;57832;46.038;11.398;2023-03-19T01:43:44;97080.66;;;2.64;100.00
70411;BME280;57832;46.038;11.398;2023-03-19T01:46:31;97094.31;;;2.80;100.00
70411;BME280;57832;46.038;11.398;2023-03-19T01:49:00;97112.78;;;2.70;100.00
70411;BME280;57832;46.038;11.398;2023-03-19T01:51:33;97105.97;;;2.41;100.00
70411;BME280;57832;46.038;11.398;2023-03-19T01:54:03;97103.88;;;2.51;100.00
70411;BME280;57832;46.038;11.398;2023-03-19T01:56:32;97093.19;;;2.89;100.00
70411;BME280;57832;46.038;11.398;2023-03-19T01:59:02;97100.66;;;2.27;100.00
70411;BME280;57832;46.038;11.398;2023-03-19T02:01:32;97105.22;;;2.47;100.00
70411;BME280;57832;46.038;11.398;2023-03-19T02:04:00;97108.53;;;2.62;100.00
70411;BME280;57832;46.038;11.398;2023-03-19T02:06:25;97101.38;;;2.64;100.00
70411;BME280;57832;46.038;11.398;2023-03-19T02:08:55;97096.25;;;2.43;100.00
70411;BME280;57832;46.038;11.398;2023-03-19T02:11:21;97094.50;;;2.28;100.00
70411;BME280;57832;46.038;11.398;2023-03-19T02:13:47;97092.41;;;2.60;100.00
70411;BME280;57832;46.038;11.398;2023-03-19T02:16:13;97077.56;;;2.76;100.00
70411;BME280;57832;46.038;11.398;2023-03-19T02:18:40;97074.78;;;2.77;100.00
70411;BME280;57832;46.038;11.398;2023-03-19T02:21:09;97071.16;;;2.72;100.00
70411;BME280;57832;46.038;11.398;2023-03-19T02:23:52;97068.06;;;2.83;100.00
70411;BME280;57832;46.038;11.398;2023-03-19T02:26:21;97059.25;;;2.77;100.00
70411;BME280;57832;46.038;11.398;2023-03-19T02:28:49;97059.25;;;2.27;100.00
70411;BME280;57832;46.038;11.398;2023-03-19T02:31:15;97057.03;;;2.46;100.00
70411;BME280;57832;46.038;11.398;2023-03-19T02:33:41;97062.56;;;2.43;100.00
70411;BME280;57832;46.038;11.398;2023-03-19T02:36:09;97065.56;;;2.46;100.00
70411;BME280;57832;46.038;11.398;2023-03-19T02:38:38;97067.69;;;2.36;100.00
70411;BME280;57832;46.038;11.398;2023-03-19T02:41:06;97061.94;;;2.41;100.00
70411;BME280;57832;46.038;11.398;2023-03-19T02:43:34;97073.41;;;2.53;100.00
70411;BME280;57832;46.038;11.398;2023-03-19T02:46:02;97067.28;;;2.61;100.00
70411;BME280;57832;46.038;11.398;2023-03-19T02:48:29;97062.28;;;2.88;100.00
70411;BME280;57832;46.038;11.398;2023-03-19T02:50:55;97074.47;;;2.59;100.00
70411;BME280;57832;46.038;11.398;2023-03-19T02:53:21;97082.38;;;2.57;100.00
70411;BME280;57832;46.038;11.398;2023-03-19T02:55:47;97069.44;;;2.57;100.00
70411;BME280;57832;46.038;11.398;2023-03-19T02:58:12;97070.31;;;2.64;100.00
70411;BME280;57832;46.038;11.398;2023-03-19T03:00:38;97066.53;;;2.67;100.00
70411;BME280;57832;46.038;11.398;2023-03-19T03:03:05;97075.88;;;2.61;100.00
70411;BME280;57832;46.038;11.398;2023-03-19T03:05:32;97069.81;;;2.54;100.00
70411;BME280;57832;46.038;11.398;2023-03-19T03:07:57;97082.28;;;2.44;100.00
70411;BME280;57832;46.038;11.398;2023-03-19T03:10:24;97091.38;;;2.55;100.00
70411;BME280;57832;46.038;11.398;2023-03-19T03:12:50;97090.69;;;2.46;100.00
70411;BME280;57832;46.038;11.398;2023-03-19T03:15:16;97095.47;;;2.49;100.00
70411;BME280;57832;46.038;11.398;2023-03-19T03:17:42;97097.22;;;2.20;100.00
70411;BME280;57832;46.038;11.398;2023-03-19T03:20:10;97094.13;;;2.53;100.00
70411;BME280;57832;46.038;11.398;2023-03-19T03:22:36;97088.28;;;2.44;100.00
70411;BME280;57832;46.038;11.398;2023-03-19T03:25:02;97083.59;;;2.11;100.00
70411;BME280;57832;46.038;11.398;2023-03-19T03:27:28;97091.03;;;2.21;100.00
70411;BME280;57832;46.038;11.398;2023-03-19T03:29:54;97087.09;;;2.47;100.00
70411;BME280;57832;46.038;11.398;2023-03-19T03:32:20;97085.75;;;2.08;100.00
70411;BME280;57832;46.038;11.398;2023-03-19T03:34:45;97077.44;;;2.12;100.00
70411;BME280;57832;46.038;11.398;2023-03-19T03:37:11;97076.88;;;1.95;100.00
70411;BME280;57832;46.038;11.398;2023-03-19T03:39:37;97079.41;;;2.10;100.00
70411;BME280;57832;46.038;11.398;2023-03-19T03:42:03;97072.13;;;2.42;100.00
70411;BME280;57832;46.038;11.398;2023-03-19T03:44:28;97067.75;;;2.43;100.00
70411;BME280;57832;46.038;11.398;2023-03-19T03:46:54;97070.81;;;2.53;100.00
70411;BME280;57832;46.038;11.398;2023-03-19T03:49:19;97075.69;;;2.41;100.00
70411;BME280;57832;46.038;11.398;2023-03-19T03:51:45;97082.28;;;2.22;100.00
70411;BME280;57832;46.038;11.398;2023-03-19T03:54:11;97092.78;;;2.36;100.00
70411;BME280;57832;46.038;11.398;2023-03-19T03:56:36;97100.72;;;2.12;100.00
70411;BME280;57832;46.038;11.398;2023-03-19T03:59:02;97110.63;;;2.30;100.00
70411;BME280;57832;46.038;11.398;2023-03-19T04:01:28;97097.31;;;2.55;100.00
70411;BME280;57832;46.038;11.398;2023-03-19T04:03:54;97090.09;;;2.50;100.00
70411;BME280;57832;46.038;11.398;2023-03-19T04:06:21;97092.78;;;2.36;100.00
70411;BME280;57832;46.038;11.398;2023-03-19T04:08:47;97078.22;;;2.56;100.00
70411;BME280;57832;46.038;11.398;2023-03-19T04:11:13;97083.16;;;2.79;100.00
70411;BME280;57832;46.038;11.398;2023-03-19T04:13:39;97094.00;;;2.90;100.00
70411;BME280;57832;46.038;11.398;2023-03-19T04:16:06;97097.28;;;2.77;100.00
70411;BME280;57832;46.038;11.398;2023-03-19T04:18:34;97100.09;;;2.54;100.00
70411;BME280;57832;46.038;11.398;2023-03-19T04:21:01;97095.56;;;2.34;100.00
70411;BME280;57832;46.038;11.398;2023-03-19T04:23:27;97097.22;;;2.20;100.00
70411;BME280;57832;46.038;11.398;2023-03-19T04:25:57;97098.38;;;2.61;100.00
70411;BME280;57832;46.038;11.398;2023-03-19T04:28:24;97096.06;;;2.73;100.00
70411;BME280;57832;46.038;11.398;2023-03-19T04:30:49;97098.38;;;2.89;100.00
70411;BME280;57832;46.038;11.398;2023-03-19T04:33:15;97096.78;;;2.88;100.00
70411;BME280;57832;46.038;11.398;2023-03-19T04:35:41;97093.91;;;2.76;100.00
70411;BME280;57832;46.038;11.398;2023-03-19T04:38:07;97101.69;;;2.76;100.00
70411;BME280;57832;46.038;11.398;2023-03-19T04:40:33;97089.94;;;2.80;100.00
70411;BME280;57832;46.038;11.398;2023-03-19T04:42:59;97091.13;;;2.78;100.00
70411;BME280;57832;46.038;11.398;2023-03-19T04:45:25;97091.16;;;2.56;100.00
70411;BME280;57832;46.038;11.398;2023-03-19T04:47:50;97091.72;;;2.80;100.00
70411;BME280;57832;46.038;11.398;2023-03-19T04:50:16;97087.75;;;2.77;100.00
70411;BME280;57832;46.038;11.398;2023-03-19T04:52:42;97087.75;;;2.56;100.00
70411;BME280;57832;46.038;11.398;2023-03-19T04:55:08;97087.22;;;2.60;100.00
70411;BME280;57832;46.038;11.398;2023-03-19T04:57:33;97090.25;;;2.42;100.00
70411;BME280;57832;46.038;11.398;2023-03-19T04:59:59;97093.47;;;2.73;100.00
70411;BME280;57832;46.038;11.398;2023-03-19T05:02:25;97095.50;;;3.06;100.00
70411;BME280;57832;46.038;11.398;2023-03-19T05:04:51;97105.63;;;3.00;100.00
70411;BME280;57832;46.038;11.398;2023-03-19T05:07:17;97098.25;;;2.97;100.00
70411;BME280;57832;46.038;11.398;2023-03-19T05:09:42;97098.25;;;2.97;100.00
70411;BME280;57832;46.038;11.398;2023-03-19T05:12:10;97099.00;;;2.91;100.00
70411;BME280;57832;46.038;11.398;2023-03-19T05:14:36;97109.44;;;2.76;100.00
70411;BME280;57832;46.038;11.398;2023-03-19T05:17:02;97110.34;;;2.62;100.00
70411;BME280;57832;46.038;11.398;2023-03-19T05:19:27;97114.94;;;2.66;100.00
70411;BME280;57832;46.038;11.398;2023-03-19T05:21:53;97114.34;;;2.64;100.00
70411;BME280;57832;46.038;11.398;2023-03-19T05:24:19;97126.44;;;2.36;100.00
70411;BME280;57832;46.038;11.398;2023-03-19T05:26:45;97125.13;;;2.68;100.00
70411;BME280;57832;46.038;11.398;2023-03-19T05:29:11;97124.59;;;2.79;100.00
70411;BME280;57832;46.038;11.398;2023-03-19T05:31:37;97120.75;;;2.68;100.00
70411;BME280;57832;46.038;11.398;2023-03-19T05:34:03;97133.19;;;2.58;100.00
70411;BME280;57832;46.038;11.398;2023-03-19T05:36:29;97136.72;;;2.50;100.00
70411;BME280;57832;46.038;11.398;2023-03-19T05:38:55;97138.44;;;2.43;100.00
70411;BME280;57832;46.038;11.398;2023-03-19T05:41:20;97142.81;;;2.64;100.00
70411;BME280;57832;46.038;11.398;2023-03-19T05:43:46;97134.13;;;2.72;100.00
70411;BME280;57832;46.038;11.398;2023-03-19T05:46:11;97124.81;;;2.78;100.00
70411;BME280;57832;46.038;11.398;2023-03-19T05:48:37;97138.50;;;2.72;100.00
70411;BME280;57832;46.038;11.398;2023-03-19T05:51:03;97142.38;;;2.82;100.00
70411;BME280;57832;46.038;11.398;2023-03-19T05:53:29;97145.06;;;2.96;100.00
70411;BME280;57832;46.038;11.398;2023-03-19T05:55:54;97147.47;;;2.97;100.00
70411;BME280;57832;46.038;11.398;2023-03-19T05:58:20;97152.13;;;2.80;100.00
70411;BME280;57832;46.038;11.398;2023-03-19T06:00:45;97160.06;;;2.57;100.00
70411;BME280;57832;46.038;11.398;2023-03-19T06:03:13;97159.38;;;2.92;100.00
70411;BME280;57832;46.038;11.398;2023-03-19T06:05:38;97169.28;;;3.10;100.00
70411;BME280;57832;46.038;11.398;2023-03-19T06:08:04;97164.66;;;2.55;100.00
70411;BME280;57832;46.038;11.398;2023-03-19T06:10:32;97166.63;;;2.75;100.00
70411;BME280;57832;46.038;11.398;2023-03-19T06:12:58;97175.81;;;2.77;100.00
70411;BME280;57832;46.038;11.398;2023-03-19T06:15:23;97159.50;;;2.83;100.00
70411;BME280;57832;46.038;11.398;2023-03-19T06:17:48;97166.06;;;2.79;100.00
70411;BME280;57832;46.038;11.398;2023-03-19T06:20:14;97164.44;;;3.00;100.00
70411;BME280;57832;46.038;11.398;2023-03-19T06:22:40;97165.31;;;2.86;100.00
70411;BME280;57832;46.038;11.398;2023-03-19T06:25:06;97174.03;;;2.78;100.00
70411;BME280;57832;46.038;11.398;2023-03-19T06:27:32;97175.22;;;3.04;100.00
70411;BME280;57832;46.038;11.398;2023-03-19T06:29:57;97172.03;;;3.01;100.00
70411;BME280;57832;46.038;11.398;2023-03-19T06:32:23;97174.63;;;3.01;100.00
70411;BME280;57832;46.038;11.398;2023-03-19T06:34:48;97179.59;;;2.75;100.00
70411;BME280;57832;46.038;11.398;2023-03-19T06:37:14;97182.97;;;2.75;100.00
70411;BME280;57832;46.038;11.398;2023-03-19T06:39:40;97180.63;;;3.09;100.00
70411;BME280;57832;46.038;11.398;2023-03-19T06:42:05;97196.09;;;2.95;100.00
70411;BME280;57832;46.038;11.398;2023-03-19T06:44:31;97180.97;;;2.99;100.00
70411;BME280;57832;46.038;11.398;2023-03-19T06:46:56;97184.75;;;3.60;100.00
70411;BME280;57832;46.038;11.398;2023-03-19T06:49:22;97174.81;;;3.63;100.00
70411;BME280;57832;46.038;11.398;2023-03-19T06:51:48;97170.38;;;3.99;100.00
70411;BME280;57832;46.038;11.398;2023-03-19T06:54:13;97175.03;;;4.17;100.00
70411;BME280;57832;46.038;11.398;2023-03-19T06:56:39;97166.25;;;4.25;100.00
70411;BME280;57832;46.038;11.398;2023-03-19T06:59:04;97161.38;;;3.95;100.00
70411;BME280;57832;46.038;11.398;2023-03-19T07:01:30;97168.69;;;4.46;100.00
70411;BME280;57832;46.038;11.398;2023-03-19T07:03:56;97182.53;;;4.67;100.00
70411;BME280;57832;46.038;11.398;2023-03-19T07:06:22;97184.50;;;4.51;100.00
70411;BME280;57832;46.038;11.398;2023-03-19T07:08:47;97187.88;;;4.32;100.00
70411;BME280;57832;46.038;11.398;2023-03-19T07:11:13;97194.50;;;4.41;100.00
70411;BME280;57832;46.038;11.398;2023-03-19T07:13:40;97193.25;;;4.30;100.00
70411;BME280;57832;46.038;11.398;2023-03-19T07:16:06;97203.91;;;4.62;100.00
70411;BME280;57832;46.038;11.398;2023-03-19T07:18:31;97207.09;;;4.58;100.00
70411;BME280;57832;46.038;11.398;2023-03-19T07:20:57;97200.72;;;4.60;100.00
70411;BME280;57832;46.038;11.398;2023-03-19T07:23:22;97196.34;;;4.81;100.00
70411;BME280;57832;46.038;11.398;2023-03-19T07:25:48;97199.16;;;5.13;100.00
70411;BME280;57832;46.038;11.398;2023-03-19T07:28:14;97198.16;;;5.14;100.00
70411;BME280;57832;46.038;11.398;2023-03-19T07:30:40;97197.94;;;5.35;100.00
70411;BME280;57832;46.038;11.398;2023-03-19T07:33:06;97191.13;;;5.48;100.00
70411;BME280;57832;46.038;11.398;2023-03-19T07:35:32;97207.25;;;5.83;100.00
70411;BME280;57832;46.038;11.398;2023-03-19T07:37:58;97195.75;;;6.18;100.00
70411;BME280;57832;46.038;11.398;2023-03-19T07:40:24;97202.47;;;6.39;100.00
70411;BME280;57832;46.038;11.398;2023-03-19T07:42:51;97197.63;;;6.49;100.00
70411;BME280;57832;46.038;11.398;2023-03-19T07:45:16;97198.53;;;7.19;100.00
70411;BME280;57832;46.038;11.398;2023-03-19T07:47:42;97199.22;;;7.08;100.00
70411;BME280;57832;46.038;11.398;2023-03-19T07:50:08;97193.41;;;7.75;100.00
70411;BME280;57832;46.038;11.398;2023-03-19T07:52:33;97187.94;;;7.95;100.00
70411;BME280;57832;46.038;11.398;2023-03-19T07:54:59;97184.53;;;7.94;100.00
70411;BME280;57832;46.038;11.398;2023-03-19T07:57:25;97181.03;;;8.19;100.00
70411;BME280;57832;46.038;11.398;2023-03-19T07:59:51;97174.97;;;8.37;100.00
70411;BME280;57832;46.038;11.398;2023-03-19T08:02:17;97176.41;;;9.06;100.00
70411;BME280;57832;46.038;11.398;2023-03-19T08:04:42;97180.50;;;9.49;100.00
70411;BME280;57832;46.038;11.398;2023-03-19T08:07:08;97179.09;;;8.87;100.00
70411;BME280;57832;46.038;11.398;2023-03-19T08:09:38;97177.63;;;8.91;100.00
70411;BME280;57832;46.038;11.398;2023-03-19T08:12:06;97181.28;;;9.02;100.00
70411;BME280;57832;46.038;11.398;2023-03-19T08:14:32;97173.66;;;8.46;100.00
70411;BME280;57832;46.038;11.398;2023-03-19T08:16:58;97169.03;;;9.02;100.00
70411;BME280;57832;46.038;11.398;2023-03-19T08:19:25;97163.84;;;8.72;100.00
70411;BME280;57832;46.038;11.398;2023-03-19T08:21:50;97169.59;;;8.50;100.00
70411;BME280;57832;46.038;11.398;2023-03-19T08:24:16;97174.75;;;8.81;100.00
70411;BME280;57832;46.038;11.398;2023-03-19T08:26:43;97166.75;;;9.42;100.00
70411;BME280;57832;46.038;11.398;2023-03-19T08:29:08;97165.78;;;9.83;100.00
70411;BME280;57832;46.038;11.398;2023-03-19T08:31:34;97160.06;;;9.98;100.00
70411;BME280;57832;46.038;11.398;2023-03-19T08:33:59;97165.53;;;10.26;100.00
70411;BME280;57832;46.038;11.398;2023-03-19T08:36:27;97168.28;;;10.60;100.00
70411;BME280;57832;46.038;11.398;2023-03-19T08:38:53;97174.03;;;11.08;100.00
70411;BME280;57832;46.038;11.398;2023-03-19T08:41:20;97169.31;;;12.54;100.00
70411;BME280;57832;46.038;11.398;2023-03-19T08:43:46;97168.94;;;12.18;100.00
70411;BME280;57832;46.038;11.398;2023-03-19T08:46:11;97184.44;;;11.36;100.00
70411;BME280;57832;46.038;11.398;2023-03-19T08:48:37;97180.84;;;11.09;100.00
70411;BME280;57832;46.038;11.398;2023-03-19T08:51:03;97176.47;;;10.80;100.00
70411;BME280;57832;46.038;11.398;2023-03-19T08:53:30;97173.97;;;11.81;100.00
70411;BME280;57832;46.038;11.398;2023-03-19T08:55:58;97169.66;;;12.36;100.00
70411;BME280;57832;46.038;11.398;2023-03-19T08:58:25;97177.53;;;12.63;100.00
70411;BME280;57832;46.038;11.398;2023-03-19T09:00:51;97174.44;;;13.84;100.00
70411;BME280;57832;46.038;11.398;2023-03-19T09:03:18;97170.81;;;13.96;100.00
70411;BME280;57832;46.038;11.398;2023-03-19T09:05:47;97173.69;;;13.03;100.00
70411;BME280;57832;46.038;11.398;2023-03-19T09:08:12;97171.75;;;12.12;100.00
70411;BME280;57832;46.038;11.398;2023-03-19T09:10:38;97170.22;;;12.43;100.00
70411;BME280;57832;46.038;11.398;2023-03-19T09:13:04;97163.19;;;13.14;100.00
70411;BME280;57832;46.038;11.398;2023-03-19T09:15:30;97161.84;;;13.97;100.00
70411;BME280;57832;46.038;11.398;2023-03-19T09:17:56;97155.34;;;14.41;100.00
70411;BME280;57832;46.038;11.398;2023-03-19T09:20:21;97160.44;;;14.94;100.00
70411;BME280;57832;46.038;11.398;2023-03-19T09:22:47;97160.38;;;14.37;100.00
70411;BME280;57832;46.038;11.398;2023-03-19T09:25:13;97156.97;;;15.34;100.00
70411;BME280;57832;46.038;11.398;2023-03-19T09:27:38;97149.59;;;16.12;98.46
70411;BME280;57832;46.038;11.398;2023-03-19T09:30:04;97150.75;;;15.96;93.02
70411;BME280;57832;46.038;11.398;2023-03-19T09:32:30;97155.47;;;13.87;100.00
70411;BME280;57832;46.038;11.398;2023-03-19T09:34:55;97151.75;;;14.98;100.00
70411;BME280;57832;46.038;11.398;2023-03-19T09:37:22;97146.94;;;15.31;99.30
70411;BME280;57832;46.038;11.398;2023-03-19T09:39:47;97133.91;;;15.61;100.00
70411;BME280;57832;46.038;11.398;2023-03-19T09:44:40;97132.56;;;15.63;82.81
70411;BME280;57832;46.038;11.398;2023-03-19T09:49:56;97133.75;;;15.26;87.22
70411;BME280;57832;46.038;11.398;2023-03-19T09:52:35;97121.16;;;17.08;75.71
70411;BME280;57832;46.038;11.398;2023-03-19T09:57:37;97121.84;;;16.49;76.59
70411;BME280;57832;46.038;11.398;2023-03-19T10:00:35;97118.09;;;16.61;79.30
70411;BME280;57832;46.038;11.398;2023-03-19T10:06:24;97123.19;;;16.81;72.58
70411;BME280;57832;46.038;11.398;2023-03-19T10:14:50;97114.13;;;16.93;69.38
70411;BME280;57832;46.038;11.398;2023-03-19T10:17:33;97114.63;;;17.72;67.50
70411;BME280;57832;46.038;11.398;2023-03-19T10:20:14;97109.41;;;17.67;69.01
70411;BME280;57832;46.038;11.398;2023-03-19T10:22:45;97109.78;;;17.31;67.65
70411;BME280;57832;46.038;11.398;2023-03-19T10:25:19;97107.44;;;17.00;73.18
70411;BME280;57832;46.038;11.398;2023-03-19T10:27:51;97099.06;;;17.66;72.77
70411;BME280;57832;46.038;11.398;2023-03-19T10:30:19;97096.50;;;17.80;69.49
70411;BME280;57832;46.038;11.398;2023-03-19T10:32:51;97099.03;;;17.90;63.06
70411;BME280;57832;46.038;11.398;2023-03-19T10:35:22;97096.41;;;18.09;63.28
70411;BME280;57832;46.038;11.398;2023-03-19T10:37:49;97105.28;;;17.32;63.33
70411;BME280;57832;46.038;11.398;2023-03-19T10:40:33;97099.22;;;16.67;65.27
70411;BME280;57832;46.038;11.398;2023-03-19T10:43:19;97085.50;;;16.95;71.20
70411;BME280;57832;46.038;11.398;2023-03-19T10:45:47;97083.94;;;16.88;71.81
70411;BME280;57832;46.038;11.398;2023-03-19T10:48:17;97083.25;;;16.03;75.70
70411;BME280;57832;46.038;11.398;2023-03-19T10:50:57;97089.88;;;15.35;84.94
70411;BME280;57832;46.038;11.398;2023-03-19T10:53:37;97087.97;;;15.51;88.38
70411;BME280;57832;46.038;11.398;2023-03-19T10:58:30;97079.28;;;16.41;77.46
70411;BME280;57832;46.038;11.398;2023-03-19T11:01:08;97085.63;;;16.45;77.63
70411;BME280;57832;46.038;11.398;2023-03-19T11:03:49;97077.72;;;16.74;74.82
70411;BME280;57832;46.038;11.398;2023-03-19T11:06:26;97068.84;;;16.60;75.43
70411;BME280;57832;46.038;11.398;2023-03-19T11:08:58;97078.19;;;17.11;74.80
70411;BME280;57832;46.038;11.398;2023-03-19T11:11:34;97070.97;;;17.65;72.11
70411;BME280;57832;46.038;11.398;2023-03-19T11:14:34;97060.09;;;17.42;70.35
70411;BME280;57832;46.038;11.398;2023-03-19T11:19:39;97048.16;;;17.45;65.84
70411;BME280;57832;46.038;11.398;2023-03-19T11:24:39;97050.75;;;17.88;67.95
70411;BME280;57832;46.038;11.398;2023-03-19T11:27:06;97050.78;;;17.45;64.42
70411;BME280;57832;46.038;11.398;2023-03-19T11:29:36;97051.91;;;18.39;60.56
70411;BME280;57832;46.038;11.398;2023-03-19T11:34:48;97047.75;;;19.27;58.42
70411;BME280;57832;46.038;11.398;2023-03-19T11:40:33;97037.91;;;19.27;55.79
70411;BME280;57832;46.038;11.398;2023-03-19T11:46:33;97019.31;;;19.78;50.54
70411;BME280;57832;46.038;11.398;2023-03-19T11:52:17;97001.91;;;19.71;48.74
70411;BME280;57832;46.038;11.398;2023-03-19T11:57:37;96983.84;;;19.68;50.38
70411;BME280;57832;46.038;11.398;2023-03-19T12:05:50;96967.28;;;20.62;49.54
70411;BME280;57832;46.038;11.398;2023-03-19T12:10:58;96953.31;;;20.25;46.12
70411;BME280;57832;46.038;11.398;2023-03-19T12:13:37;96953.72;;;19.73;45.99
70411;BME280;57832;46.038;11.398;2023-03-19T12:27:23;96932.97;;;20.29;47.74
70411;BME280;57832;46.038;11.398;2023-03-19T12:30:12;96927.06;;;19.87;47.59
70411;BME280;57832;46.038;11.398;2023-03-19T12:35:32;96922.56;;;19.74;47.55
70411;BME280;57832;46.038;11.398;2023-03-19T12:40:38;96908.06;;;20.65;47.66
70411;BME280;57832;46.038;11.398;2023-03-19T12:43:16;96905.94;;;20.45;46.66
70411;BME280;57832;46.038;11.398;2023-03-19T12:45:46;96913.03;;;19.95;46.90
70411;BME280;57832;46.038;11.398;2023-03-19T12:48:17;96907.06;;;20.93;46.71
70411;BME280;57832;46.038;11.398;2023-03-19T12:50:49;96903.69;;;20.69;46.23
70411;BME280;57832;46.038;11.398;2023-03-19T12:55:56;96887.50;;;21.15;45.05
70411;BME280;57832;46.038;11.398;2023-03-19T13:01:13;96893.94;;;20.65;44.44
70411;BME280;57832;46.038;11.398;2023-03-19T13:03:53;96886.38;;;20.98;45.40
70411;BME280;57832;46.038;11.398;2023-03-19T13:06:33;96886.88;;;20.60;46.02
70411;BME280;57832;46.038;11.398;2023-03-19T13:12:04;96888.53;;;19.11;51.39
70411;BME280;57832;46.038;11.398;2023-03-19T13:14:48;96890.84;;;19.04;55.87
70411;BME280;57832;46.038;11.398;2023-03-19T13:23:01;96884.94;;;18.93;59.25
70411;BME280;57832;46.038;11.398;2023-03-19T13:25:37;96880.41;;;18.66;63.15
70411;BME280;57832;46.038;11.398;2023-03-19T13:30:59;96875.38;;;19.43;57.49
70411;BME280;57832;46.038;11.398;2023-03-19T13:33:25;96873.03;;;19.41;56.80
70411;BME280;57832;46.038;11.398;2023-03-19T13:35:51;96878.84;;;18.93;55.09
70411;BME280;57832;46.038;11.398;2023-03-19T13:38:33;96875.59;;;19.32;56.34
70411;BME280;57832;46.038;11.398;2023-03-19T13:41:02;96873.31;;;18.61;57.49
70411;BME280;57832;46.038;11.398;2023-03-19T13:46:25;96863.41;;;19.31;56.57
70411;BME280;57832;46.038;11.398;2023-03-19T13:48:53;96864.47;;;18.94;57.95
70411;BME280;57832;46.038;11.398;2023-03-19T13:56:26;96858.06;;;20.22;51.30
70411;BME280;57832;46.038;11.398;2023-03-19T14:01:42;96854.38;;;19.18;53.45
70411;BME280;57832;46.038;11.398;2023-03-19T14:04:31;96850.72;;;19.96;51.97
70411;BME280;57832;46.038;11.398;2023-03-19T14:07:16;96846.28;;;19.24;53.38
70411;BME280;57832;46.038;11.398;2023-03-19T14:09:45;96839.06;;;18.74;53.05
70411;BME280;57832;46.038;11.398;2023-03-19T14:17:38;96848.59;;;17.72;59.95
70411;BME280;57832;46.038;11.398;2023-03-19T14:20:22;96845.97;;;17.34;67.26
70411;BME280;57832;46.038;11.398;2023-03-19T14:23:11;96842.75;;;17.56;69.81
70411;BME280;57832;46.038;11.398;2023-03-19T14:28:58;96839.50;;;17.59;71.44
70411;BME280;57832;46.038;11.398;2023-03-19T14:34:05;96840.31;;;17.60;75.23
70411;BME280;57832;46.038;11.398;2023-03-19T14:36:34;96843.78;;;17.74;73.68
70411;BME280;57832;46.038;11.398;2023-03-19T14:39:07;96836.03;;;17.45;75.82